createdAt,value
2023-04-26T00:01:27.390Z,2.75
2023-04-26T00:03:54.091Z,2.75
2023-04-26T00:06:20.620Z,2.72
2023-04-26T00:08:47.117Z,2.83
2023-04-26T00:11:13.457Z,2.70
2023-04-26T00:13:39.872Z,3.50
2023-04-26T00:16:06.717Z,2.80
2023-04-26T00:18:33.082Z,3.17
2023-04-26T00:20:59.419Z,3.72
2023-04-26T00:23:26.176Z,3.17
2023-04-26T00:25:52.505Z,3.15
2023-04-26T00:28:18.910Z,3.63
2023-04-26T00:30:48.798Z,3.28
2023-04-26T00:33:15.212Z,3.05
2023-04-26T00:35:41.693Z,3.40
2023-04-26T00:38:08.027Z,3.22
2023-04-26T00:40:35.338Z,3.50
2023-04-26T00:43:03.155Z,3.85
2023-04-26T00:45:30.122Z,3.83
2023-04-26T00:47:56.600Z,3.80
2023-04-26T00:50:23.652Z,3.53
2023-04-26T00:52:50.647Z,3.85
2023-04-26T00:55:17.853Z,4.07
2023-04-26T00:57:45.818Z,3.38
2023-04-26T01:00:12.895Z,3.20
2023-04-26T01:02:39.415Z,3.70
2023-04-26T01:05:06.629Z,3.22
2023-04-26T01:07:33.457Z,4.05
2023-04-26T01:09:59.974Z,4.28
2023-04-26T01:12:26.608Z,3.65
2023-04-26T01:14:53.450Z,3.28
2023-04-26T01:17:19.946Z,3.65
2023-04-26T01:19:50.135Z,4.22
2023-04-26T01:22:16.494Z,3.30
2023-04-26T01:24:44.915Z,3.38
2023-04-26T01:27:11.336Z,3.53
2023-04-26T01:29:37.697Z,3.80
2023-04-26T01:32:04.589Z,3.45
2023-04-26T01:34:33.010Z,3.33
2023-04-26T01:36:59.311Z,3.70
2023-04-26T01:39:25.687Z,4.10
2023-04-26T01:41:52.233Z,4.55
2023-04-26T01:44:18.547Z,4.07
2023-04-26T01:46:44.988Z,3.72
2023-04-26T01:49:11.555Z,4.50
2023-04-26T01:51:38.168Z,3.88
2023-04-26T01:54:04.596Z,4.63
2023-04-26T01:56:31.171Z,4.18
2023-04-26T01:58:57.661Z,4.25
2023-04-26T02:01:24.221Z,4.18
2023-04-26T02:03:51.152Z,4.40
2023-04-26T02:06:17.460Z,4.38
2023-04-26T02:08:45.270Z,4.03
2023-04-26T02:11:11.663Z,3.58
2023-04-26T02:13:38.159Z,3.60
2023-04-26T02:16:04.934Z,4.40
2023-04-26T02:18:31.331Z,4.15
2023-04-26T02:20:57.658Z,3.72
2023-04-26T02:23:30.291Z,3.85
2023-04-26T02:25:56.767Z,4.28
2023-04-26T02:28:23.222Z,3.92
2023-04-26T02:30:49.702Z,4.43
2023-04-26T02:33:16.031Z,4.25
2023-04-26T02:35:42.398Z,4.13
2023-04-26T02:38:08.688Z,4.65
2023-04-26T02:40:35.013Z,4.63
2023-04-26T02:43:02.173Z,4.70
2023-04-26T02:45:28.524Z,4.53
2023-04-26T02:47:55.079Z,4.50
2023-04-26T02:50:21.687Z,4.93
2023-04-26T02:52:48.022Z,4.55
2023-04-26T02:55:15.170Z,4.85
2023-04-26T02:57:41.488Z,5.35
2023-04-26T03:00:08.762Z,5.30
2023-04-26T03:02:36.417Z,5.15
2023-04-26T03:05:03.051Z,5.25
2023-04-26T03:07:29.335Z,5.35
2023-04-26T03:09:55.842Z,5.30
2023-04-26T03:12:22.126Z,5.90
2023-04-26T03:14:48.516Z,5.85
2023-04-26T03:17:14.836Z,5.90
2023-04-26T03:19:41.187Z,6.10
2023-04-26T03:22:07.535Z,5.80
2023-04-26T03:24:33.881Z,5.30
2023-04-26T03:27:00.252Z,5.07
2023-04-26T03:29:26.908Z,5.80
2023-04-26T03:31:53.332Z,6.45
2023-04-26T03:34:19.690Z,6.43
2023-04-26T03:36:46.274Z,6.00
2023-04-26T03:39:12.611Z,6.53
2023-04-26T03:41:40.310Z,6.43
2023-04-26T03:44:07.057Z,6.07
2023-04-26T03:46:33.634Z,6.45
2023-04-26T03:49:00.000Z,6.25
2023-04-26T03:51:27.438Z,6.05
2023-04-26T03:53:54.598Z,6.10
2023-04-26T03:56:21.144Z,6.60
2023-04-26T03:58:47.479Z,6.53
2023-04-26T04:01:13.794Z,6.60
2023-04-26T04:03:41.536Z,6.47
2023-04-26T04:06:08.247Z,7.03
2023-04-26T04:08:34.551Z,6.70
2023-04-26T04:11:01.316Z,6.15
2023-04-26T04:13:27.761Z,6.30
2023-04-26T04:15:54.198Z,6.80
2023-04-26T04:18:20.947Z,6.95
2023-04-26T04:20:47.339Z,7.70
2023-04-26T04:23:13.675Z,7.38
2023-04-26T04:25:39.980Z,6.90
2023-04-26T04:28:06.369Z,6.65
2023-04-26T04:30:32.698Z,7.82
2023-04-26T04:33:00.152Z,7.25
2023-04-26T04:35:28.584Z,7.20
2023-04-26T04:37:58.805Z,6.75
2023-04-26T04:40:26.128Z,6.73
2023-04-26T04:42:53.331Z,7.43
2023-04-26T04:45:20.103Z,6.88
2023-04-26T04:47:46.476Z,6.78
2023-04-26T04:50:13.181Z,7.30
2023-04-26T04:52:39.489Z,6.70
2023-04-26T04:55:06.242Z,6.72
2023-04-26T04:57:32.622Z,7.07
2023-04-26T04:59:59.257Z,6.88
2023-04-26T05:02:25.904Z,6.53
2023-04-26T05:04:52.526Z,6.90
2023-04-26T05:07:18.981Z,6.78
2023-04-26T05:09:45.617Z,7.45
2023-04-26T05:12:12.046Z,7.47
2023-04-26T05:14:38.451Z,8.10
2023-04-26T05:17:04.861Z,6.53
2023-04-26T05:19:31.864Z,6.68
2023-04-26T05:21:58.273Z,7.47
2023-04-26T05:24:24.639Z,7.05
2023-04-26T05:26:50.977Z,6.95
2023-04-26T05:29:17.908Z,7.43
2023-04-26T05:31:44.332Z,6.90
2023-04-26T05:34:10.674Z,7.85
2023-04-26T05:36:37.047Z,8.00
2023-04-26T05:39:05.612Z,6.97
2023-04-26T05:41:31.955Z,7.40
2023-04-26T05:43:58.297Z,6.70
2023-04-26T05:46:24.765Z,6.65
2023-04-26T05:48:51.873Z,5.82
2023-04-26T05:51:18.226Z,6.28
2023-04-26T05:53:44.564Z,7.40
2023-04-26T05:56:10.903Z,7.47
2023-04-26T05:58:37.238Z,6.78
2023-04-26T06:01:03.589Z,7.65
2023-04-26T06:03:30.598Z,6.93
2023-04-26T06:05:58.888Z,7.13
2023-04-26T06:08:25.572Z,7.03
2023-04-26T06:10:51.960Z,7.40
2023-04-26T06:13:18.307Z,7.78
2023-04-26T06:15:44.741Z,8.80
2023-04-26T06:18:11.151Z,7.32
2023-04-26T06:20:37.578Z,7.82
2023-04-26T06:23:04.594Z,7.57
2023-04-26T06:25:30.920Z,7.07
2023-04-26T06:27:58.581Z,5.38
2023-04-26T06:30:24.918Z,6.57
2023-04-26T06:32:51.282Z,8.02
2023-04-26T06:35:17.764Z,6.50
2023-04-26T06:37:44.095Z,6.72
2023-04-26T06:40:11.073Z,6.45
2023-04-26T06:42:37.445Z,3.15
2023-04-26T06:45:04.038Z,4.10
2023-04-26T06:47:30.354Z,5.00
2023-04-26T06:49:56.698Z,4.60
2023-04-26T06:52:23.114Z,5.22
2023-04-26T06:54:56.682Z,5.82
2023-04-26T06:57:23.622Z,4.95
2023-04-26T06:59:49.929Z,4.80
2023-04-26T07:02:16.308Z,5.90
2023-04-26T07:04:43.172Z,5.80
2023-04-26T07:07:11.125Z,6.75
2023-04-26T07:09:39.291Z,4.15
2023-04-26T07:12:06.124Z,4.18
2023-04-26T07:14:32.500Z,5.20
2023-04-26T07:16:58.837Z,4.43
2023-04-26T07:19:25.159Z,2.83
2023-04-26T07:21:51.485Z,3.42
2023-04-26T07:24:17.894Z,4.20
2023-04-26T07:26:44.283Z,3.45
2023-04-26T07:29:10.612Z,3.38
2023-04-26T07:31:36.901Z,3.50
2023-04-26T07:34:03.256Z,3.35
2023-04-26T07:36:29.599Z,3.65
2023-04-26T07:38:55.956Z,2.70
2023-04-26T07:41:22.296Z,1.95
2023-04-26T07:43:48.625Z,2.55
2023-04-26T07:46:15.180Z,2.63
2023-04-26T07:48:41.748Z,2.53
2023-04-26T07:51:10.520Z,0.95
2023-04-26T07:53:37.593Z,1.50
2023-04-26T07:56:08.377Z,1.95
2023-04-26T07:58:36.037Z,1.48
2023-04-26T08:01:03.617Z,2.13
2023-04-26T08:03:30.234Z,2.17
2023-04-26T08:05:58.887Z,2.20
2023-04-26T08:08:26.855Z,1.50
2023-04-26T08:10:53.434Z,1.60
2023-04-26T08:13:19.808Z,1.40
2023-04-26T08:15:46.225Z,1.00
2023-04-26T08:18:13.128Z,1.48
2023-04-26T08:20:39.503Z,1.33
2023-04-26T08:23:05.868Z,1.40
2023-04-26T08:25:34.615Z,2.13
2023-04-26T08:28:01.822Z,1.05
2023-04-26T08:30:28.153Z,0.73
2023-04-26T08:32:54.555Z,1.80
2023-04-26T08:35:21.509Z,1.10
2023-04-26T08:37:47.866Z,1.00
2023-04-26T08:40:14.373Z,0.90
2023-04-26T08:42:43.662Z,1.33
2023-04-26T08:45:13.385Z,0.85
2023-04-26T08:47:44.937Z,1.00
2023-04-26T08:50:14.468Z,1.00
2023-04-26T08:52:42.923Z,1.20
2023-04-26T08:55:10.274Z,1.00
2023-04-26T08:57:36.808Z,1.45
2023-04-26T09:00:14.394Z,1.35
2023-04-26T09:02:42.858Z,1.25
2023-04-26T09:05:10.428Z,1.95
2023-04-26T09:07:41.087Z,1.10
2023-04-26T09:10:08.781Z,1.15
2023-04-26T09:12:35.160Z,1.48
2023-04-26T09:15:02.154Z,1.20
2023-04-26T09:17:32.376Z,0.70
2023-04-26T09:20:01.110Z,1.10
2023-04-26T09:22:35.699Z,1.17
2023-04-26T09:25:04.830Z,1.33
2023-04-26T09:27:36.425Z,1.50
2023-04-26T09:30:09.415Z,0.70
2023-04-26T09:32:44.677Z,1.30
2023-04-26T09:35:23.177Z,1.38
2023-04-26T09:38:12.225Z,1.60
2023-04-26T09:40:42.751Z,1.27
2023-04-26T09:43:14.317Z,1.42
2023-04-26T09:45:45.703Z,1.13
2023-04-26T09:48:17.834Z,1.38
2023-04-26T09:50:46.143Z,0.95
2023-04-26T09:53:25.828Z,0.95
2023-04-26T09:55:53.474Z,1.33
2023-04-26T09:58:19.857Z,0.40
2023-04-26T10:00:50.985Z,1.20
2023-04-26T10:05:45.771Z,0.82
2023-04-26T10:08:12.199Z,1.08
2023-04-26T10:10:38.712Z,1.00
2023-04-26T10:13:06.445Z,1.25
2023-04-26T10:15:33.464Z,0.70
2023-04-26T10:17:59.829Z,1.15
2023-04-26T10:20:28.634Z,1.30
2023-04-26T10:23:01.286Z,1.25
2023-04-26T10:25:41.894Z,0.60
2023-04-26T10:28:08.505Z,0.93
2023-04-26T10:30:55.283Z,1.40
2023-04-26T10:33:23.455Z,1.40
2023-04-26T10:36:05.553Z,1.13
2023-04-26T10:38:32.930Z,1.00
2023-04-26T10:41:27.634Z,0.80
2023-04-26T10:43:54.075Z,1.45
2023-04-26T10:46:40.845Z,1.50
2023-04-26T10:49:17.926Z,1.55
2023-04-26T10:52:11.473Z,1.48
2023-04-26T10:54:57.831Z,1.27
2023-04-26T10:57:47.759Z,1.33
2023-04-26T11:02:57.657Z,1.25
2023-04-26T11:05:37.818Z,2.55
2023-04-26T11:08:26.751Z,1.73
2023-04-26T11:11:02.034Z,1.90
2023-04-26T11:13:40.458Z,1.00
2023-04-26T11:16:09.177Z,1.70
2023-04-26T11:18:37.294Z,1.77
2023-04-26T11:21:04.929Z,2.15
2023-04-26T11:23:31.893Z,1.17
2023-04-26T11:26:04.301Z,1.40
2023-04-26T11:28:35.505Z,1.63
2023-04-26T11:33:30.856Z,1.98
2023-04-26T11:35:58.237Z,1.50
2023-04-26T11:38:26.494Z,3.22
2023-04-26T11:41:03.502Z,1.70
2023-04-26T11:43:37.234Z,2.15
2023-04-26T11:46:05.203Z,1.70
2023-04-26T11:48:33.403Z,1.80
2023-04-26T11:51:02.362Z,1.65
2023-04-26T11:53:37.526Z,2.05
2023-04-26T11:56:25.641Z,1.83
2023-04-26T11:58:53.020Z,2.47
2023-04-26T12:01:25.675Z,2.67
2023-04-26T12:03:59.359Z,2.30
2023-04-26T12:06:30.415Z,2.15
2023-04-26T12:08:57.294Z,1.85
2023-04-26T12:11:23.652Z,3.25
2023-04-26T12:13:49.952Z,1.40
2023-04-26T12:16:25.718Z,1.90
2023-04-26T12:18:53.346Z,1.60
2023-04-26T12:21:20.331Z,1.70
2023-04-26T12:23:49.320Z,1.70
2023-04-26T12:26:15.785Z,1.95
2023-04-26T12:28:42.482Z,1.98
2023-04-26T12:31:09.176Z,1.40
2023-04-26T12:33:35.934Z,1.65
2023-04-26T12:36:12.193Z,1.42
2023-04-26T12:38:39.204Z,1.25
2023-04-26T12:41:05.736Z,1.98
2023-04-26T12:43:32.095Z,1.70
2023-04-26T12:45:58.563Z,1.60
2023-04-26T12:48:24.875Z,1.27
2023-04-26T12:50:51.393Z,1.00
2023-04-26T12:53:18.491Z,1.67
2023-04-26T12:55:44.962Z,1.42
2023-04-26T12:58:11.458Z,1.50
2023-04-26T13:00:38.057Z,1.83
2023-04-26T13:03:04.581Z,1.60
2023-04-26T13:05:32.280Z,1.83
2023-04-26T13:08:01.767Z,1.80
2023-04-26T13:10:28.229Z,1.63
2023-04-26T13:12:54.521Z,2.05
2023-04-26T13:15:21.494Z,1.30
2023-04-26T13:17:47.812Z,1.80
2023-04-26T13:20:14.149Z,1.70
2023-04-26T13:22:42.393Z,1.63
2023-04-26T13:25:10.092Z,1.95
2023-04-26T13:27:36.805Z,2.00
2023-04-26T13:30:03.365Z,1.30
2023-04-26T13:32:29.728Z,2.13
2023-04-26T13:34:56.761Z,1.90
2023-04-26T13:37:23.721Z,0.90
2023-04-26T13:39:50.060Z,1.80
2023-04-26T13:42:17.386Z,1.58
2023-04-26T13:44:44.058Z,1.80
2023-04-26T13:47:10.830Z,1.70
2023-04-26T13:49:39.307Z,1.80
2023-04-26T13:52:05.685Z,2.30
2023-04-26T13:54:32.000Z,1.05
2023-04-26T13:56:58.356Z,1.58
2023-04-26T13:59:24.721Z,1.55
2023-04-26T14:01:54.280Z,1.73
2023-04-26T14:04:22.196Z,2.17
2023-04-26T14:06:48.669Z,1.10
2023-04-26T14:09:15.004Z,1.70
2023-04-26T14:11:41.458Z,2.30
2023-04-26T14:14:07.785Z,3.28
2023-04-26T14:16:34.170Z,2.28
2023-04-26T14:19:01.902Z,1.52
2023-04-26T14:21:28.305Z,1.98
2023-04-26T14:23:54.903Z,2.10
2023-04-26T14:26:21.433Z,1.85
2023-04-26T14:28:47.984Z,1.88
2023-04-26T14:31:14.508Z,2.00
2023-04-26T14:33:40.949Z,2.00
2023-04-26T14:36:08.250Z,1.88
2023-04-26T14:38:34.681Z,1.52
2023-04-26T14:41:01.514Z,1.77
2023-04-26T14:43:27.838Z,1.70
2023-04-26T14:45:54.269Z,1.42
2023-04-26T14:48:20.707Z,1.80
2023-04-26T14:50:47.575Z,1.38
2023-04-26T14:53:13.956Z,2.00
2023-04-26T14:55:40.367Z,2.05
2023-04-26T14:58:06.764Z,1.48
2023-04-26T15:00:33.128Z,1.70
2023-04-26T15:03:00.085Z,1.65
2023-04-26T15:05:26.727Z,1.60
2023-04-26T15:07:53.120Z,2.25
2023-04-26T15:10:19.486Z,1.77
2023-04-26T15:12:45.907Z,1.70
2023-04-26T15:15:12.280Z,1.98
2023-04-26T15:17:38.762Z,3.20
2023-04-26T15:20:06.240Z,2.50
2023-04-26T15:22:33.273Z,2.30
2023-04-26T15:24:59.591Z,2.10
2023-04-26T15:27:26.358Z,1.70
2023-04-26T15:29:53.211Z,2.47
2023-04-26T15:32:19.532Z,3.22
2023-04-26T15:34:45.853Z,4.50
2023-04-26T15:37:12.240Z,3.15
2023-04-26T15:39:38.853Z,2.28
2023-04-26T15:42:05.712Z,2.28
2023-04-26T15:44:32.470Z,2.90
2023-04-26T15:46:59.021Z,2.60
2023-04-26T15:49:26.116Z,1.90
2023-04-26T15:51:52.407Z,1.55
2023-04-26T15:54:18.818Z,2.20
2023-04-26T15:56:46.570Z,1.70
2023-04-26T15:59:13.648Z,2.20
2023-04-26T16:01:40.666Z,1.80
2023-04-26T16:04:07.374Z,1.75
2023-04-26T16:06:33.803Z,1.70
2023-04-26T16:09:02.213Z,1.80
2023-04-26T16:11:28.600Z,1.58
2023-04-26T16:13:54.937Z,1.73
2023-04-26T16:16:21.362Z,1.65
2023-04-26T16:18:47.760Z,1.55
2023-04-26T16:21:14.162Z,2.17
2023-04-26T16:23:41.753Z,1.80
2023-04-26T16:26:09.249Z,1.60
2023-04-26T16:28:35.902Z,1.52
2023-04-26T16:31:02.349Z,1.80
2023-04-26T16:33:28.721Z,1.88
2023-04-26T16:35:55.411Z,1.77
2023-04-26T16:38:22.800Z,2.03
2023-04-26T16:40:59.199Z,2.45
2023-04-26T16:43:27.036Z,2.03
2023-04-26T16:46:03.965Z,1.92
2023-04-26T16:48:31.787Z,2.63
2023-04-26T16:50:59.471Z,1.98
2023-04-26T16:53:25.935Z,2.22
2023-04-26T16:55:52.435Z,2.08
2023-04-26T16:58:19.512Z,8.50
2023-04-26T17:00:46.048Z,2.08
2023-04-26T17:03:12.684Z,1.90
2023-04-26T17:05:43.426Z,1.60
2023-04-26T17:08:10.256Z,1.55
2023-04-26T17:10:37.453Z,1.30
2023-04-26T17:13:06.197Z,1.95
2023-04-26T17:15:36.156Z,1.23
2023-04-26T17:18:07.120Z,1.45
2023-04-26T17:20:34.696Z,1.60
2023-04-26T17:23:02.074Z,1.40
2023-04-26T17:25:28.566Z,1.30
2023-04-26T17:27:55.038Z,1.40
2023-04-26T17:30:21.974Z,2.35
2023-04-26T17:32:48.520Z,2.50
2023-04-26T17:35:15.018Z,1.88
2023-04-26T17:37:49.452Z,1.80
2023-04-26T17:40:17.788Z,1.92
2023-04-26T17:42:44.512Z,2.20
2023-04-26T17:45:14.218Z,2.17
2023-04-26T17:47:41.506Z,2.22
2023-04-26T17:50:08.705Z,1.67
2023-04-26T17:52:35.542Z,1.92
2023-04-26T17:55:02.002Z,1.90
2023-04-26T17:57:28.370Z,1.90
2023-04-26T17:59:54.738Z,2.08
2023-04-26T18:02:21.146Z,2.00
2023-04-26T18:04:47.854Z,1.83
2023-04-26T18:07:15.138Z,2.30
2023-04-26T18:09:41.745Z,2.15
2023-04-26T18:12:08.314Z,1.70
2023-04-26T18:14:34.676Z,2.05
2023-04-26T18:17:01.141Z,1.95
2023-04-26T18:19:27.485Z,1.70
2023-04-26T18:21:53.872Z,2.10
2023-04-26T18:24:20.213Z,1.63
2023-04-26T18:26:46.672Z,2.38
2023-04-26T18:29:13.080Z,2.30
2023-04-26T18:31:39.518Z,3.03
2023-04-26T18:34:06.771Z,6.47
2023-04-26T18:36:33.140Z,5.78
2023-04-26T18:39:00.975Z,2.38
2023-04-26T18:41:27.628Z,1.60
2023-04-26T18:43:54.336Z,2.20
2023-04-26T18:46:21.513Z,2.40
2023-04-26T18:48:47.887Z,2.13
2023-04-26T18:51:14.364Z,2.47
2023-04-26T18:53:40.888Z,2.47
2023-04-26T18:56:07.258Z,2.55
2023-04-26T18:58:34.305Z,2.45
2023-04-26T19:01:00.929Z,2.50
2023-04-26T19:03:27.528Z,2.60
2023-04-26T19:05:54.175Z,2.50
2023-04-26T19:08:20.926Z,2.70
2023-04-26T19:10:47.234Z,2.50
2023-04-26T19:13:13.559Z,2.20
2023-04-26T19:15:40.097Z,2.47
2023-04-26T19:18:06.717Z,2.53
2023-04-26T19:20:33.146Z,3.10
2023-04-26T19:22:59.468Z,3.35
2023-04-26T19:25:26.632Z,3.00
2023-04-26T19:27:52.986Z,3.63
2023-04-26T19:30:19.372Z,3.75
2023-04-26T19:32:45.841Z,3.45
2023-04-26T19:35:12.243Z,3.78
2023-04-26T19:37:38.590Z,4.05
2023-04-26T19:40:09.677Z,4.28
2023-04-26T19:42:35.986Z,5.95
2023-04-26T19:45:02.484Z,4.25
2023-04-26T19:47:28.853Z,5.22
2023-04-26T19:49:57.126Z,5.13
2023-04-26T19:52:23.585Z,4.13
2023-04-26T19:54:53.138Z,3.88
2023-04-26T19:57:20.429Z,3.33
2023-04-26T19:59:46.760Z,3.45
2023-04-26T20:02:13.558Z,2.72
2023-04-26T20:04:39.898Z,2.80
2023-04-26T20:07:06.247Z,2.50
2023-04-26T20:09:32.613Z,2.60
2023-04-26T20:11:59.965Z,2.97
2023-04-26T20:14:27.329Z,2.63
2023-04-26T20:16:53.871Z,2.53
2023-04-26T20:19:20.510Z,2.47
2023-04-26T20:21:46.878Z,2.45
2023-04-26T20:24:13.518Z,2.42
2023-04-26T20:26:39.870Z,2.53
2023-04-26T20:29:06.662Z,2.58
2023-04-26T20:31:33.440Z,2.60
2023-04-26T20:34:01.092Z,2.65
2023-04-26T20:36:27.425Z,2.55
2023-04-26T20:38:53.824Z,2.80
2023-04-26T20:41:20.863Z,2.60
2023-04-26T20:43:47.194Z,2.97
2023-04-26T20:46:13.533Z,2.60
2023-04-26T20:48:39.858Z,3.03
2023-04-26T20:51:06.153Z,3.35
2023-04-26T20:53:32.511Z,2.72
2023-04-26T20:56:02.157Z,3.25
2023-04-26T20:58:41.022Z,2.97
2023-04-26T21:01:07.765Z,3.05
2023-04-26T21:03:35.571Z,3.20
2023-04-26T21:06:02.434Z,3.05
2023-04-26T21:08:28.743Z,2.70
2023-04-26T21:10:55.108Z,3.00
2023-04-26T21:13:22.353Z,2.70
2023-04-26T21:15:48.782Z,2.67
2023-04-26T21:18:15.538Z,2.80
2023-04-26T21:20:41.834Z,2.78
2023-04-26T21:23:08.210Z,2.72
2023-04-26T21:25:34.515Z,2.90
2023-04-26T21:28:00.809Z,2.53
2023-04-26T21:30:27.120Z,2.78
2023-04-26T21:32:53.605Z,2.75
2023-04-26T21:35:20.162Z,2.08
2023-04-26T21:37:46.520Z,2.58
2023-04-26T21:40:13.303Z,2.47
2023-04-26T21:42:39.772Z,2.72
2023-04-26T21:45:06.811Z,2.40
2023-04-26T21:47:33.256Z,2.53
2023-04-26T21:49:59.727Z,2.58
2023-04-26T21:52:26.126Z,3.03
2023-04-26T21:54:52.959Z,2.33
2023-04-26T21:57:22.840Z,3.10
2023-04-26T21:59:49.821Z,2.67
2023-04-26T22:02:16.228Z,2.85
2023-04-26T22:04:42.595Z,2.50
2023-04-26T22:07:08.896Z,3.08
2023-04-26T22:09:35.553Z,2.65
2023-04-26T22:12:02.578Z,2.75
2023-04-26T22:14:28.945Z,2.90
2023-04-26T22:16:55.680Z,2.67
2023-04-26T22:19:22.108Z,3.13
2023-04-26T22:21:48.444Z,2.83
2023-04-26T22:24:14.771Z,2.50
2023-04-26T22:26:41.239Z,3.40
2023-04-26T22:29:07.700Z,3.00
2023-04-26T22:31:34.069Z,2.97
2023-04-26T22:34:00.382Z,2.80
2023-04-26T22:36:26.848Z,2.70
2023-04-26T22:38:53.176Z,3.22
2023-04-26T22:41:19.492Z,3.30
2023-04-26T22:43:46.043Z,3.28
2023-04-26T22:46:12.452Z,2.47
2023-04-26T22:48:38.780Z,2.95
2023-04-26T22:51:05.814Z,2.63
2023-04-26T22:53:32.116Z,3.38
2023-04-26T22:55:58.424Z,2.78
2023-04-26T22:58:24.737Z,3.13
2023-04-26T23:00:51.151Z,2.58
2023-04-26T23:03:17.625Z,2.78
2023-04-26T23:05:44.099Z,2.92
2023-04-26T23:08:10.414Z,2.72
2023-04-26T23:10:38.740Z,2.55
2023-04-26T23:13:05.349Z,2.72
2023-04-26T23:15:34.538Z,2.60
2023-04-26T23:18:00.922Z,2.80
2023-04-26T23:20:27.285Z,2.38
2023-04-26T23:22:53.596Z,2.63
2023-04-26T23:25:19.973Z,2.67
2023-04-26T23:27:46.758Z,2.22
2023-04-26T23:30:13.885Z,2.85
2023-04-26T23:32:40.664Z,2.55
2023-04-26T23:35:07.582Z,2.30
2023-04-26T23:37:33.948Z,2.00
2023-04-26T23:40:00.463Z,2.95
2023-04-26T23:42:26.859Z,2.72
2023-04-26T23:44:53.163Z,2.80
2023-04-26T23:47:19.479Z,2.63
2023-04-26T23:49:45.869Z,2.45
2023-04-26T23:52:12.202Z,2.63
2023-04-26T23:54:38.511Z,2.50
2023-04-26T23:57:04.930Z,2.60
2023-04-26T23:59:31.283Z,2.53
